createdAt,value
2019-01-20T00:01:21.038Z,10.13
2019-01-20T00:03:54.106Z,10.43
2019-01-20T00:06:21.138Z,9.25
2019-01-20T00:08:48.231Z,10.30
2019-01-20T00:11:16.739Z,11.40
2019-01-20T00:13:45.165Z,9.90
2019-01-20T00:16:18.266Z,9.68
2019-01-20T00:18:45.278Z,9.70
2019-01-20T00:21:12.410Z,9.85
2019-01-20T00:23:39.779Z,8.48
2019-01-20T00:26:06.822Z,8.98
2019-01-20T00:28:35.092Z,9.45
2019-01-20T00:31:03.292Z,8.75
2019-01-20T00:33:31.690Z,9.88
2019-01-20T00:36:04.723Z,9.35
2019-01-20T00:38:31.769Z,9.98
2019-01-20T00:40:58.814Z,10.45
2019-01-20T00:43:26.668Z,10.23
2019-01-20T00:45:54.001Z,10.90
2019-01-20T00:48:22.450Z,10.03
2019-01-20T00:50:54.006Z,10.40
2019-01-20T00:53:21.574Z,10.10
2019-01-20T00:55:49.626Z,9.35
2019-01-20T00:58:18.122Z,10.68
2019-01-20T01:00:45.786Z,9.70
2019-01-20T01:03:12.992Z,9.18
2019-01-20T01:05:40.889Z,8.58
2019-01-20T01:08:11.001Z,9.80
2019-01-20T01:10:39.529Z,9.93
2019-01-20T01:13:08.931Z,9.70
2019-01-20T01:15:37.532Z,9.25
2019-01-20T01:18:06.151Z,9.80
2019-01-20T01:20:33.369Z,9.55
2019-01-20T01:23:01.940Z,10.40
2019-01-20T01:25:30.105Z,8.58
2019-01-20T01:27:58.702Z,10.10
2019-01-20T01:30:27.302Z,8.88
2019-01-20T01:32:55.973Z,8.65
2019-01-20T01:35:24.507Z,10.00
2019-01-20T01:37:52.587Z,9.23
2019-01-20T01:40:20.930Z,9.65
2019-01-20T01:42:49.053Z,9.55
2019-01-20T01:45:18.471Z,9.80
2019-01-20T01:47:47.166Z,9.23
2019-01-20T01:50:17.121Z,9.80
2019-01-20T01:52:45.386Z,8.38
2019-01-20T01:55:13.721Z,10.08
2019-01-20T01:57:42.273Z,9.88
2019-01-20T02:00:21.102Z,8.83
2019-01-20T02:02:49.222Z,9.38
2019-01-20T02:05:17.943Z,9.10
2019-01-20T02:07:46.074Z,8.40
2019-01-20T02:10:19.451Z,9.10
2019-01-20T02:12:47.258Z,9.58
2019-01-20T02:15:15.850Z,9.30
2019-01-20T02:17:44.065Z,8.75
2019-01-20T02:20:16.630Z,8.50
2019-01-20T02:22:44.037Z,7.83
2019-01-20T02:25:12.062Z,9.75
2019-01-20T02:27:39.094Z,8.10
2019-01-20T02:30:19.405Z,8.63
2019-01-20T02:32:46.792Z,8.05
2019-01-20T02:35:14.118Z,8.28
2019-01-20T02:37:41.051Z,8.10
2019-01-20T02:40:11.993Z,7.70
2019-01-20T02:42:39.152Z,8.13
2019-01-20T02:45:07.668Z,9.13
2019-01-20T02:47:34.658Z,8.88
2019-01-20T02:50:02.118Z,8.35
2019-01-20T02:52:30.043Z,8.35
2019-01-20T02:54:57.942Z,8.20
2019-01-20T02:57:25.882Z,8.25
2019-01-20T02:59:53.980Z,9.15
2019-01-20T03:02:22.058Z,9.00
2019-01-20T03:04:51.637Z,9.30
2019-01-20T03:07:20.255Z,8.73
2019-01-20T03:09:48.662Z,8.25
2019-01-20T03:12:17.933Z,8.63
2019-01-20T03:14:44.843Z,8.60
2019-01-20T03:17:12.770Z,9.40
2019-01-20T03:19:40.806Z,9.18
2019-01-20T03:22:08.976Z,8.83
2019-01-20T03:24:37.027Z,8.50
2019-01-20T03:27:05.131Z,8.65
2019-01-20T03:29:33.348Z,8.58
2019-01-20T03:32:04.355Z,8.40
2019-01-20T03:34:31.254Z,7.78
2019-01-20T03:36:58.287Z,8.10
2019-01-20T03:39:26.202Z,7.80
2019-01-20T03:41:54.510Z,8.53
2019-01-20T03:44:23.406Z,8.20
2019-01-20T03:46:51.876Z,7.45
2019-01-20T03:49:19.086Z,7.97
2019-01-20T03:51:50.956Z,7.97
2019-01-20T03:54:18.030Z,8.08
2019-01-20T03:56:45.054Z,8.28
2019-01-20T03:59:12.186Z,8.45
2019-01-20T04:01:40.357Z,7.50
2019-01-20T04:04:08.358Z,8.08
2019-01-20T04:06:36.690Z,7.35
2019-01-20T04:09:06.649Z,8.25
2019-01-20T04:11:35.214Z,7.65
2019-01-20T04:14:04.084Z,7.90
2019-01-20T04:16:32.223Z,7.62
2019-01-20T04:19:00.386Z,6.80
2019-01-20T04:21:28.409Z,7.55
2019-01-20T04:23:57.886Z,7.75
2019-01-20T04:26:25.062Z,7.17
2019-01-20T04:28:53.162Z,8.00
2019-01-20T04:31:21.226Z,7.50
2019-01-20T04:33:49.617Z,6.00
2019-01-20T04:36:17.863Z,8.53
2019-01-20T04:38:46.051Z,8.00
2019-01-20T04:41:14.231Z,7.35
2019-01-20T04:43:42.388Z,6.50
2019-01-20T04:46:10.489Z,7.92
2019-01-20T04:48:38.726Z,7.20
2019-01-20T04:51:06.910Z,6.60
2019-01-20T04:53:40.301Z,7.35
2019-01-20T04:56:07.779Z,7.00
2019-01-20T04:58:34.701Z,8.15
2019-01-20T05:01:01.825Z,7.10
2019-01-20T05:03:28.763Z,7.85
2019-01-20T05:05:56.979Z,6.92
2019-01-20T05:08:24.933Z,8.13
2019-01-20T05:10:53.006Z,6.40
2019-01-20T05:13:21.031Z,7.25
2019-01-20T05:15:49.099Z,7.10
2019-01-20T05:18:17.395Z,6.80
2019-01-20T05:20:45.317Z,6.85
2019-01-20T05:23:13.442Z,7.40
2019-01-20T05:25:44.107Z,7.62
2019-01-20T05:28:11.307Z,6.90
2019-01-20T05:30:39.437Z,7.90
2019-01-20T05:33:08.090Z,8.35
2019-01-20T05:35:35.024Z,7.65
2019-01-20T05:38:07.611Z,8.63
2019-01-20T05:40:34.663Z,8.28
2019-01-20T05:43:01.726Z,7.00
2019-01-20T05:45:28.651Z,8.15
2019-01-20T05:47:56.791Z,8.23
2019-01-20T05:50:24.894Z,7.47
2019-01-20T05:52:52.958Z,8.50
2019-01-20T05:55:21.428Z,7.60
2019-01-20T05:57:49.565Z,7.62
2019-01-20T06:00:23.046Z,7.33
2019-01-20T06:02:51.602Z,6.50
2019-01-20T06:05:19.812Z,7.17
2019-01-20T06:07:48.374Z,7.10
2019-01-20T06:10:16.502Z,7.47
2019-01-20T06:12:44.942Z,7.87
2019-01-20T06:15:14.897Z,6.85
2019-01-20T06:17:43.378Z,7.30
2019-01-20T06:20:11.717Z,6.87
2019-01-20T06:22:40.207Z,6.42
2019-01-20T06:25:08.629Z,7.62
2019-01-20T06:27:37.126Z,7.35
2019-01-20T06:30:14.663Z,6.72
2019-01-20T06:32:41.986Z,6.60
2019-01-20T06:35:10.123Z,7.30
2019-01-20T06:37:38.266Z,7.17
2019-01-20T06:40:06.755Z,8.15
2019-01-20T06:42:34.690Z,7.67
2019-01-20T06:45:04.542Z,7.53
2019-01-20T06:47:32.618Z,6.83
2019-01-20T06:50:00.564Z,7.37
2019-01-20T06:52:30.238Z,7.33
2019-01-20T06:54:57.278Z,8.10
2019-01-20T06:57:25.836Z,7.30
2019-01-20T06:59:53.769Z,6.90
2019-01-20T07:02:21.782Z,6.95
2019-01-20T07:04:49.832Z,6.40
2019-01-20T07:07:17.738Z,7.10
2019-01-20T07:09:45.695Z,7.50
2019-01-20T07:12:13.930Z,6.83
2019-01-20T07:14:42.238Z,7.70
2019-01-20T07:17:12.945Z,6.60
2019-01-20T07:19:41.245Z,6.70
2019-01-20T07:22:09.326Z,7.20
2019-01-20T07:24:39.639Z,7.10
2019-01-20T07:27:07.574Z,7.40
2019-01-20T07:29:35.641Z,6.60
2019-01-20T07:32:05.270Z,7.00
2019-01-20T07:34:32.192Z,7.05
2019-01-20T07:37:00.234Z,6.62
2019-01-20T07:39:28.442Z,6.17
2019-01-20T07:41:56.354Z,7.05
2019-01-20T07:44:24.462Z,6.90
2019-01-20T07:46:52.379Z,6.62
2019-01-20T07:49:20.990Z,8.38
2019-01-20T07:51:49.658Z,6.80
2019-01-20T07:54:18.380Z,12.63
2019-01-20T07:56:47.306Z,10.00
2019-01-20T07:59:15.686Z,9.53
2019-01-20T08:01:44.162Z,8.10
2019-01-20T08:04:12.546Z,8.38
2019-01-20T08:06:40.998Z,7.45
2019-01-20T08:09:09.694Z,7.90
2019-01-20T08:11:38.178Z,7.15
2019-01-20T08:14:06.666Z,6.92
2019-01-20T08:16:35.092Z,7.80
2019-01-20T08:19:03.336Z,8.03
2019-01-20T08:21:31.894Z,8.60
2019-01-20T08:24:06.370Z,7.60
2019-01-20T08:26:33.902Z,7.10
2019-01-20T08:29:00.981Z,8.35
2019-01-20T08:31:28.878Z,7.92
2019-01-20T08:33:57.710Z,7.97
2019-01-20T08:36:26.412Z,8.03
2019-01-20T08:38:55.066Z,9.68
2019-01-20T08:41:23.350Z,9.40
2019-01-20T08:43:51.514Z,8.40
2019-01-20T08:46:47.126Z,9.60
2019-01-20T08:49:14.694Z,9.45
2019-01-20T08:51:42.635Z,9.50
2019-01-20T08:54:09.937Z,10.58
2019-01-20T08:56:37.476Z,10.55
2019-01-20T08:59:05.019Z,10.40
2019-01-20T09:01:32.959Z,10.60
2019-01-20T09:04:00.746Z,9.90
2019-01-20T09:06:28.382Z,11.00
2019-01-20T09:08:55.294Z,10.43
2019-01-20T09:11:23.722Z,10.40
2019-01-20T09:13:52.381Z,8.80
2019-01-20T09:16:21.159Z,9.35
2019-01-20T09:18:49.351Z,9.48
2019-01-20T09:21:20.265Z,9.08
2019-01-20T09:23:47.451Z,9.00
2019-01-20T09:26:16.297Z,9.20
2019-01-20T09:28:45.218Z,10.78
2019-01-20T09:31:13.754Z,9.38
2019-01-20T09:33:42.086Z,8.95
2019-01-20T09:36:10.595Z,8.73
2019-01-20T09:38:38.854Z,8.10
2019-01-20T09:41:06.821Z,8.68
2019-01-20T09:43:35.279Z,8.88
2019-01-20T09:46:04.109Z,7.45
2019-01-20T09:48:32.467Z,7.45
2019-01-20T09:51:01.017Z,8.28
2019-01-20T09:53:29.205Z,7.30
2019-01-20T09:55:57.786Z,7.65
2019-01-20T09:58:26.422Z,8.10
2019-01-20T10:00:55.338Z,8.20
2019-01-20T10:03:23.858Z,7.87
2019-01-20T10:05:52.571Z,7.37
2019-01-20T10:08:21.358Z,7.55
2019-01-20T10:10:49.902Z,7.62
2019-01-20T10:13:18.166Z,7.05
2019-01-20T10:15:46.335Z,7.92
2019-01-20T10:18:14.702Z,6.92
2019-01-20T10:20:43.462Z,7.08
2019-01-20T10:23:11.534Z,6.78
2019-01-20T10:25:40.243Z,7.22
2019-01-20T10:28:10.875Z,7.50
2019-01-20T10:30:39.526Z,8.40
2019-01-20T10:33:08.524Z,7.37
2019-01-20T10:35:46.019Z,7.80
2019-01-20T10:38:13.451Z,7.42
2019-01-20T10:40:41.887Z,8.10
2019-01-20T10:43:09.255Z,8.38
2019-01-20T10:45:38.315Z,8.00
2019-01-20T10:48:07.058Z,8.23
2019-01-20T10:50:36.451Z,8.53
2019-01-20T10:53:06.929Z,7.80
2019-01-20T10:55:34.559Z,7.75
2019-01-20T10:58:02.482Z,7.35
2019-01-20T11:00:32.170Z,7.50
2019-01-20T11:03:01.446Z,7.85
2019-01-20T11:05:31.593Z,7.78
2019-01-20T11:08:00.771Z,11.12
2019-01-20T11:10:28.910Z,8.45
2019-01-20T11:12:57.022Z,8.60
2019-01-20T11:15:25.844Z,7.00
2019-01-20T11:17:54.379Z,6.20
2019-01-20T11:20:22.769Z,5.85
2019-01-20T11:22:51.525Z,5.92
2019-01-20T11:25:22.334Z,6.03
2019-01-20T11:27:50.591Z,5.75
2019-01-20T11:30:19.450Z,5.30
2019-01-20T11:32:48.134Z,4.80
2019-01-20T11:35:17.933Z,5.53
2019-01-20T11:37:46.897Z,5.35
2019-01-20T11:40:15.588Z,5.87
2019-01-20T11:42:42.597Z,5.75
2019-01-20T11:45:15.495Z,6.10
2019-01-20T11:47:44.042Z,4.87
2019-01-20T11:50:12.377Z,5.97
2019-01-20T11:52:40.616Z,5.65
2019-01-20T11:55:10.133Z,6.08
2019-01-20T11:57:38.990Z,6.30
2019-01-20T12:00:11.866Z,5.92
2019-01-20T12:02:40.238Z,5.75
2019-01-20T12:05:09.998Z,5.65
2019-01-20T12:07:38.498Z,5.62
2019-01-20T12:10:08.378Z,5.40
2019-01-20T12:12:38.119Z,5.60
2019-01-20T12:15:09.074Z,5.10
2019-01-20T12:17:37.417Z,5.67
2019-01-20T12:20:09.412Z,6.10
2019-01-20T12:22:38.694Z,5.67
2019-01-20T12:25:10.718Z,5.85
2019-01-20T12:27:38.690Z,6.62
2019-01-20T12:30:09.879Z,5.87
2019-01-20T12:32:38.029Z,6.70
2019-01-20T12:35:06.272Z,6.05
2019-01-20T12:37:34.190Z,6.53
2019-01-20T12:40:02.714Z,6.90
2019-01-20T12:42:31.318Z,6.65
2019-01-20T12:44:59.246Z,7.15
2019-01-20T12:47:27.303Z,6.72
2019-01-20T12:49:55.246Z,6.12
2019-01-20T12:52:24.903Z,6.70
2019-01-20T12:54:51.859Z,6.62
2019-01-20T12:57:19.979Z,5.95
2019-01-20T12:59:48.087Z,6.65
2019-01-20T13:02:16.337Z,7.35
2019-01-20T13:04:44.306Z,7.15
2019-01-20T13:07:12.502Z,6.60
2019-01-20T13:09:43.201Z,7.08
2019-01-20T13:12:10.114Z,7.25
2019-01-20T13:14:39.069Z,6.85
2019-01-20T13:17:07.541Z,6.95
2019-01-20T13:19:35.470Z,6.92
2019-01-20T13:22:03.594Z,6.80
2019-01-20T13:24:31.698Z,7.08
2019-01-20T13:27:00.509Z,7.25
2019-01-20T13:29:30.562Z,8.13
2019-01-20T13:31:58.307Z,7.08
2019-01-20T13:34:26.215Z,8.15
2019-01-20T13:36:54.237Z,8.03
2019-01-20T13:39:22.266Z,8.53
2019-01-20T13:41:50.217Z,9.25
2019-01-20T13:44:18.215Z,9.00
2019-01-20T13:46:46.501Z,9.13
2019-01-20T13:49:19.342Z,9.65
2019-01-20T13:51:47.187Z,9.45
2019-01-20T13:54:16.674Z,10.25
2019-01-20T13:56:44.601Z,9.43
2019-01-20T13:59:11.764Z,8.65
2019-01-20T14:01:39.006Z,9.15
2019-01-20T14:04:07.499Z,9.10
2019-01-20T14:06:36.230Z,9.45
2019-01-20T14:09:06.362Z,9.08
2019-01-20T14:11:35.052Z,8.83
2019-01-20T14:14:03.549Z,8.53
2019-01-20T14:16:33.199Z,8.00
2019-01-20T14:19:01.402Z,8.28
2019-01-20T14:21:30.307Z,8.15
2019-01-20T14:23:58.090Z,7.20
2019-01-20T14:26:27.446Z,8.45
2019-01-20T14:28:55.394Z,7.97
2019-01-20T14:31:24.231Z,9.00
2019-01-20T14:33:52.415Z,9.75
2019-01-20T14:36:21.366Z,8.23
2019-01-20T14:38:56.666Z,8.80
2019-01-20T14:41:24.087Z,8.83
2019-01-20T14:43:51.646Z,8.18
2019-01-20T14:46:19.182Z,8.20
2019-01-20T14:48:51.278Z,8.18
2019-01-20T14:51:23.947Z,9.53
2019-01-20T14:53:51.245Z,8.55
2019-01-20T14:56:18.421Z,8.60
2019-01-20T14:58:45.890Z,8.90
2019-01-20T15:01:13.323Z,8.50
2019-01-20T15:03:46.385Z,8.50
2019-01-20T15:06:13.426Z,8.35
2019-01-20T15:08:40.805Z,7.72
2019-01-20T15:11:08.693Z,8.45
2019-01-20T15:13:35.839Z,8.35
2019-01-20T15:16:02.949Z,8.05
2019-01-20T15:18:30.130Z,8.20
2019-01-20T15:20:57.161Z,8.65
2019-01-20T15:23:24.282Z,9.13
2019-01-20T15:25:51.289Z,9.15
2019-01-20T15:28:19.327Z,9.35
2019-01-20T15:30:47.518Z,9.90
2019-01-20T15:33:16.978Z,8.80
2019-01-20T15:35:44.203Z,8.88
2019-01-20T15:38:11.498Z,8.90
2019-01-20T15:40:39.794Z,9.25
2019-01-20T15:43:08.346Z,9.48
2019-01-20T15:45:35.647Z,10.48
2019-01-20T15:48:04.254Z,8.63
2019-01-20T15:50:32.653Z,8.85
2019-01-20T15:53:01.916Z,8.58
2019-01-20T15:55:30.683Z,9.18
2019-01-20T15:57:58.759Z,9.70
2019-01-20T16:00:29.920Z,9.95
2019-01-20T16:02:57.535Z,9.60
2019-01-20T16:05:27.170Z,9.68
2019-01-20T16:08:11.956Z,9.90
2019-01-20T16:10:42.766Z,10.10
2019-01-20T16:13:10.641Z,8.73
2019-01-20T16:15:44.666Z,9.85
2019-01-20T16:18:14.352Z,10.78
2019-01-20T16:20:41.470Z,9.98
2019-01-20T16:23:09.647Z,9.80
2019-01-20T16:25:37.786Z,10.28
2019-01-20T16:28:10.314Z,10.05
2019-01-20T16:30:38.542Z,10.88
2019-01-20T16:33:05.978Z,10.35
2019-01-20T16:35:36.295Z,11.25
2019-01-20T16:38:05.087Z,10.43
2019-01-20T16:40:35.010Z,11.30
2019-01-20T16:43:02.458Z,10.70
2019-01-20T16:45:42.067Z,10.63
2019-01-20T16:48:08.008Z,11.35
2019-01-20T16:50:37.265Z,10.88
2019-01-20T16:53:04.984Z,10.50
2019-01-20T16:55:32.959Z,10.98
2019-01-20T16:58:00.506Z,11.60
2019-01-20T17:00:29.268Z,10.13
2019-01-20T17:03:03.286Z,10.53
2019-01-20T17:05:30.720Z,10.70
2019-01-20T17:07:58.123Z,11.33
2019-01-20T17:10:28.062Z,11.75
2019-01-20T17:12:55.401Z,10.58
2019-01-20T17:15:25.967Z,11.05
2019-01-20T17:17:53.383Z,11.38
2019-01-20T17:20:21.015Z,11.05
2019-01-20T17:22:48.540Z,11.33
2019-01-20T17:25:16.292Z,11.53
2019-01-20T17:27:49.371Z,12.10
2019-01-20T17:30:21.590Z,12.95
2019-01-20T17:32:49.773Z,12.65
2019-01-20T17:35:20.282Z,11.88
2019-01-20T17:37:53.672Z,11.97
2019-01-20T17:40:23.325Z,10.58
2019-01-20T17:42:50.690Z,11.60
2019-01-20T17:45:20.674Z,11.05
2019-01-20T17:47:49.912Z,10.90
2019-01-20T17:50:23.642Z,9.80
2019-01-20T17:52:53.026Z,10.65
2019-01-20T17:55:20.919Z,11.50
2019-01-20T17:57:51.199Z,11.80
2019-01-20T18:00:20.781Z,12.10
2019-01-20T18:02:48.315Z,10.68
2019-01-20T18:05:18.944Z,12.53
2019-01-20T18:07:47.038Z,12.00
2019-01-20T18:10:14.615Z,12.90
2019-01-20T18:12:41.785Z,11.97
2019-01-20T18:15:10.757Z,12.30
2019-01-20T18:17:38.726Z,10.98
2019-01-20T18:20:09.052Z,12.30
2019-01-20T18:22:36.139Z,12.95
2019-01-20T18:25:04.091Z,12.70
2019-01-20T18:27:31.451Z,12.65
2019-01-20T18:30:00.323Z,12.28
2019-01-20T18:32:28.647Z,12.53
2019-01-20T18:34:56.903Z,13.32
2019-01-20T18:37:25.323Z,12.85
2019-01-20T18:39:53.847Z,12.93
2019-01-20T18:42:22.608Z,12.20
2019-01-20T18:44:50.881Z,11.43
2019-01-20T18:47:19.510Z,13.30
2019-01-20T18:49:47.711Z,14.23
2019-01-20T18:52:16.250Z,13.65
2019-01-20T18:54:44.584Z,13.50
2019-01-20T18:57:13.007Z,14.13
2019-01-20T18:59:41.628Z,14.00
2019-01-20T19:02:09.992Z,14.00
2019-01-20T19:04:38.657Z,13.35
2019-01-20T19:07:06.610Z,14.33
2019-01-20T19:09:34.748Z,13.85
2019-01-20T19:12:04.602Z,13.32
2019-01-20T19:14:34.746Z,14.07
2019-01-20T19:17:01.989Z,14.30
2019-01-20T19:19:30.229Z,13.90
2019-01-20T19:21:59.075Z,13.68
2019-01-20T19:24:30.093Z,13.55
2019-01-20T19:26:57.825Z,14.38
2019-01-20T19:29:25.684Z,14.60
2019-01-20T19:31:55.671Z,15.93
2019-01-20T19:34:22.876Z,14.60
2019-01-20T19:36:50.094Z,15.38
2019-01-20T19:39:17.378Z,15.20
2019-01-20T19:41:46.410Z,14.28
2019-01-20T19:44:13.821Z,15.50
2019-01-20T19:46:42.574Z,13.70
2019-01-20T19:49:10.897Z,15.68
2019-01-20T19:51:39.017Z,13.90
2019-01-20T19:54:07.096Z,14.70
2019-01-20T19:56:35.178Z,16.60
2019-01-20T19:59:03.488Z,15.32
2019-01-20T20:01:31.420Z,16.02
2019-01-20T20:03:59.552Z,15.50
2019-01-20T20:06:27.663Z,16.00
2019-01-20T20:08:55.975Z,16.35
2019-01-20T20:11:25.966Z,14.90
2019-01-20T20:13:53.028Z,15.63
2019-01-20T20:16:23.528Z,15.83
2019-01-20T20:18:51.157Z,16.62
2019-01-20T20:21:19.559Z,15.18
2019-01-20T20:23:50.815Z,16.17
2019-01-20T20:26:17.830Z,16.30
2019-01-20T20:28:44.941Z,15.55
2019-01-20T20:31:14.462Z,15.38
2019-01-20T20:33:41.426Z,15.10
2019-01-20T20:36:15.550Z,14.70
2019-01-20T20:38:44.715Z,15.53
2019-01-20T20:41:11.758Z,16.17
2019-01-20T20:43:38.799Z,16.65
2019-01-20T20:46:06.075Z,15.88
2019-01-20T20:48:33.011Z,16.30
2019-01-20T20:51:00.222Z,16.07
2019-01-20T20:53:28.290Z,16.65
2019-01-20T20:55:55.344Z,17.37
2019-01-20T20:58:22.683Z,18.15
2019-01-20T21:00:52.691Z,16.00
2019-01-20T21:03:29.270Z,17.30
2019-01-20T21:05:57.180Z,16.80
2019-01-20T21:08:24.401Z,18.62
2019-01-20T21:10:55.131Z,18.17
2019-01-20T21:13:22.638Z,18.25
2019-01-20T21:15:50.949Z,17.30
2019-01-20T21:18:20.903Z,16.50
2019-01-20T21:20:48.226Z,17.92
2019-01-20T21:23:17.361Z,17.55
2019-01-20T21:25:45.653Z,18.32
2019-01-20T21:28:14.947Z,17.05
2019-01-20T21:30:44.510Z,17.40
2019-01-20T21:33:12.031Z,16.80
2019-01-20T21:35:39.897Z,17.70
2019-01-20T21:38:07.663Z,18.62
2019-01-20T21:40:36.154Z,17.62
2019-01-20T21:43:04.911Z,17.20
2019-01-20T21:45:33.162Z,16.55
2019-01-20T21:48:01.363Z,16.07
2019-01-20T21:50:30.133Z,16.80
2019-01-20T21:52:59.242Z,16.52
2019-01-20T21:55:26.465Z,18.20
2019-01-20T21:57:54.683Z,18.40
2019-01-20T22:00:24.331Z,17.87
2019-01-20T22:02:52.432Z,18.32
2019-01-20T22:05:21.442Z,17.40
2019-01-20T22:07:49.874Z,18.62
2019-01-20T22:10:18.746Z,17.05
2019-01-20T22:12:47.200Z,18.05
2019-01-20T22:15:15.094Z,18.25
2019-01-20T22:17:43.972Z,17.00
2019-01-20T22:20:14.137Z,17.42
2019-01-20T22:22:42.458Z,18.25
2019-01-20T22:25:11.485Z,17.07
2019-01-20T22:27:40.012Z,18.23
2019-01-20T22:30:13.947Z,16.70
2019-01-20T22:32:41.549Z,19.00
2019-01-20T22:35:09.443Z,17.90
2019-01-20T22:37:37.940Z,17.85
2019-01-20T22:40:07.471Z,18.65
2019-01-20T22:42:34.527Z,17.02
2019-01-20T22:45:02.743Z,17.12
2019-01-20T22:47:32.358Z,16.60
2019-01-20T22:50:00.574Z,17.17
2019-01-20T22:52:28.892Z,17.42
2019-01-20T22:54:58.122Z,17.60
2019-01-20T22:57:26.990Z,17.05
2019-01-20T22:59:55.326Z,17.73
2019-01-20T23:02:24.006Z,17.62
2019-01-20T23:04:52.738Z,17.20
2019-01-20T23:07:22.211Z,17.48
2019-01-20T23:09:49.503Z,17.62
2019-01-20T23:12:17.279Z,17.77
2019-01-20T23:14:45.626Z,17.50
2019-01-20T23:17:14.115Z,17.12
2019-01-20T23:19:41.702Z,18.40
2019-01-20T23:22:10.502Z,15.95
2019-01-20T23:24:42.210Z,17.25
2019-01-20T23:27:09.526Z,19.07
2019-01-20T23:29:36.777Z,17.75
2019-01-20T23:32:04.264Z,17.77
2019-01-20T23:34:32.619Z,17.90
2019-01-20T23:37:01.127Z,18.15
2019-01-20T23:39:29.764Z,19.10
2019-01-20T23:41:58.594Z,18.20
2019-01-20T23:44:26.783Z,18.55
2019-01-20T23:46:55.370Z,17.48
2019-01-20T23:49:24.235Z,18.02
2019-01-20T23:51:52.800Z,19.00
2019-01-20T23:54:21.312Z,19.15
2019-01-20T23:56:50.012Z,18.52
2019-01-20T23:59:18.284Z,19.82
